createdAt,value
2022-12-13T00:00:08.469Z,100061.47
2022-12-13T00:03:14.145Z,100063.22
2022-12-13T00:06:15.737Z,100045.19
2022-12-13T00:09:18.449Z,100053.84
2022-12-13T00:12:19.858Z,100047.72
2022-12-13T00:15:21.250Z,100049.31
2022-12-13T00:18:22.672Z,100043.19
2022-12-13T00:21:27.718Z,100039.00
2022-12-13T00:24:29.105Z,100039.03
2022-12-13T00:27:30.675Z,100036.44
2022-12-13T00:30:32.170Z,100032.16
2022-12-13T00:33:34.204Z,100039.09
2022-12-13T00:36:35.595Z,100037.38
2022-12-13T00:39:37.074Z,100033.91
2022-12-13T00:42:38.468Z,100023.53
2022-12-13T00:45:40.499Z,100035.66
2022-12-13T00:48:42.888Z,100027.00
2022-12-13T00:51:44.285Z,100034.78
2022-12-13T00:54:45.690Z,100033.03
2022-12-13T00:57:47.125Z,100032.13
2022-12-13T01:00:48.547Z,100029.50
2022-12-13T01:03:51.270Z,100016.53
2022-12-13T01:06:53.794Z,100013.09
2022-12-13T01:09:58.118Z,100018.97
2022-12-13T01:12:59.875Z,100014.56
2022-12-13T01:16:03.683Z,100018.81
2022-12-13T01:19:06.170Z,100029.97
2022-12-13T01:22:08.185Z,100030.94
2022-12-13T01:25:10.721Z,100023.25
2022-12-13T01:28:12.125Z,100031.72
2022-12-13T01:31:17.607Z,100034.34
2022-12-13T01:34:21.107Z,100028.25
2022-12-13T01:37:28.039Z,100024.09
2022-12-13T01:40:29.650Z,100016.44
2022-12-13T01:43:37.336Z,100024.91
2022-12-13T01:46:38.709Z,100016.25
2022-12-13T01:49:40.138Z,100002.44
2022-12-13T01:52:44.136Z,100017.94
2022-12-13T01:55:50.312Z,100023.03
2022-12-13T01:58:55.242Z,100016.16
2022-12-13T02:02:01.122Z,100009.16
2022-12-13T02:05:41.475Z,100012.50
2022-12-13T02:08:44.740Z,100007.31
2022-12-13T02:11:46.755Z,99997.94
2022-12-13T02:14:48.390Z,100003.13
2022-12-13T02:18:03.058Z,100006.59
2022-12-13T02:21:21.220Z,99997.28
2022-12-13T02:24:40.249Z,99993.94
2022-12-13T02:28:00.491Z,99993.97
2022-12-13T02:31:08.474Z,99994.84
2022-12-13T02:34:26.922Z,99991.34
2022-12-13T02:37:50.700Z,99992.22
2022-12-13T02:41:10.439Z,99988.81
2022-12-13T02:44:22.832Z,99993.97
2022-12-13T02:47:27.664Z,99997.44
2022-12-13T02:50:31.728Z,99998.19
2022-12-13T02:53:34.694Z,100000.78
2022-12-13T02:56:36.170Z,99993.88
2022-12-13T02:59:39.727Z,99993.03
2022-12-13T03:02:59.624Z,99992.94
2022-12-13T03:06:34.082Z,99989.50
2022-12-13T03:09:48.745Z,99989.44
2022-12-13T03:13:38.200Z,99991.19
2022-12-13T03:16:43.664Z,99978.97
2022-12-13T03:19:45.104Z,99976.47
2022-12-13T03:22:46.524Z,99971.31
2022-12-13T03:25:52.097Z,99969.63
2022-12-13T03:28:53.719Z,99971.47
2022-12-13T03:31:55.232Z,99969.63
2022-12-13T03:35:00.922Z,99969.56
2022-12-13T03:38:04.042Z,99967.91
2022-12-13T03:41:09.790Z,99973.06
2022-12-13T03:44:11.425Z,99971.41
2022-12-13T03:47:12.852Z,99977.38
2022-12-13T03:50:26.763Z,99973.06
2022-12-13T03:53:32.703Z,99983.28
2022-12-13T03:56:35.771Z,99973.00
2022-12-13T03:59:38.965Z,99976.47
2022-12-13T04:02:40.481Z,99974.75
2022-12-13T04:05:42.561Z,99973.81
2022-12-13T04:08:44.043Z,99965.28
2022-12-13T04:12:04.086Z,99964.41
2022-12-13T04:15:06.759Z,99966.09
2022-12-13T04:18:08.180Z,99955.69
2022-12-13T04:21:09.736Z,99960.84
2022-12-13T04:24:11.137Z,99953.91
2022-12-13T04:27:12.539Z,99952.19
2022-12-13T04:30:14.028Z,99953.03
2022-12-13T04:33:15.419Z,99944.41
2022-12-13T04:36:31.659Z,99941.84
2022-12-13T04:39:34.920Z,99937.47
2022-12-13T04:42:36.424Z,99955.41
2022-12-13T04:45:37.863Z,99945.88
2022-12-13T04:48:39.756Z,99941.56
2022-12-13T04:51:41.177Z,99946.81
2022-12-13T04:54:56.128Z,99942.56
2022-12-13T04:57:57.705Z,99950.34
2022-12-13T05:00:59.207Z,99949.56
2022-12-13T05:04:04.126Z,99928.03
2022-12-13T05:07:05.685Z,99946.03
2022-12-13T05:10:07.642Z,99939.19
2022-12-13T05:13:09.043Z,99934.94
2022-12-13T05:16:10.556Z,99922.06
2022-12-13T05:19:11.994Z,99933.22
2022-12-13T05:22:19.805Z,99928.09
2022-12-13T05:25:22.391Z,99934.88
2022-12-13T05:28:28.782Z,99933.13
2022-12-13T05:31:30.597Z,99933.03
2022-12-13T05:34:32.057Z,99927.06
2022-12-13T05:37:34.879Z,99933.00
2022-12-13T05:40:36.499Z,99933.84
2022-12-13T05:43:42.702Z,99915.84
2022-12-13T05:46:45.160Z,99914.25
2022-12-13T05:49:46.569Z,99918.53
2022-12-13T05:52:48.061Z,99930.75
2022-12-13T05:55:49.707Z,99927.34
2022-12-13T05:58:53.637Z,99938.53
2022-12-13T06:01:56.885Z,99929.09
2022-12-13T06:04:58.383Z,99930.72
2022-12-13T06:08:01.335Z,99926.44
2022-12-13T06:11:11.556Z,99930.78
2022-12-13T06:14:21.567Z,99928.31
2022-12-13T06:17:25.155Z,99927.47
2022-12-13T06:20:26.800Z,99936.03
2022-12-13T06:23:30.632Z,99941.97
2022-12-13T06:26:32.645Z,99934.28
2022-12-13T06:29:34.190Z,99936.09
2022-12-13T06:32:38.930Z,99934.38
2022-12-13T06:35:43.986Z,99947.25
2022-12-13T06:38:45.584Z,99943.69
2022-12-13T06:41:47.115Z,99950.50
2022-12-13T06:44:51.676Z,99940.09
2022-12-13T06:47:59.978Z,99940.13
2022-12-13T06:51:03.412Z,99937.50
2022-12-13T06:54:04.849Z,99940.94
2022-12-13T06:57:06.249Z,99943.53
2022-12-13T07:00:09.113Z,99940.09
2022-12-13T07:03:12.365Z,99935.72
2022-12-13T07:06:16.298Z,99930.56
2022-12-13T07:09:17.788Z,99945.94
2022-12-13T07:12:20.835Z,99938.06
2022-12-13T07:15:22.263Z,99949.28
2022-12-13T07:18:23.758Z,99962.81
2022-12-13T07:21:25.364Z,99967.22
2022-12-13T07:24:26.869Z,99968.13
2022-12-13T07:27:28.268Z,99964.69
2022-12-13T07:30:41.090Z,99980.16
2022-12-13T07:33:43.186Z,99980.97
2022-12-13T07:36:44.594Z,99989.63
2022-12-13T07:39:46.152Z,99988.84
2022-12-13T07:42:53.187Z,99987.91
2022-12-13T07:45:54.985Z,99986.34
2022-12-13T07:49:01.541Z,99991.53
2022-12-13T07:52:03.498Z,99994.00
2022-12-13T07:55:06.045Z,99989.03
2022-12-13T07:58:10.437Z,99999.44
2022-12-13T08:01:14.447Z,99996.19
2022-12-13T08:04:15.865Z,100005.63
2022-12-13T08:07:17.301Z,99991.03
2022-12-13T08:10:18.796Z,99987.56
2022-12-13T08:13:21.503Z,99978.06
2022-12-13T08:16:27.615Z,99961.03
2022-12-13T08:19:30.399Z,99954.25
2022-12-13T08:22:35.731Z,99966.25
2022-12-13T08:25:37.871Z,99979.03
2022-12-13T08:28:39.293Z,99993.66
2022-12-13T08:31:40.911Z,99989.47
2022-12-13T08:34:43.178Z,99975.78
2022-12-13T08:37:44.584Z,99982.03
2022-12-13T08:40:45.961Z,99986.53
2022-12-13T08:43:47.734Z,99987.44
2022-12-13T08:46:49.272Z,99990.13
2022-12-13T08:49:50.902Z,99991.88
2022-12-13T08:52:52.610Z,99986.81
2022-12-13T08:55:53.988Z,99986.88
2022-12-13T08:58:55.363Z,99995.47
2022-12-13T09:02:01.602Z,99989.44
2022-12-13T09:05:08.068Z,99991.16
2022-12-13T09:08:23.369Z,99988.56
2022-12-13T09:11:34.636Z,99988.59
2022-12-13T09:14:45.708Z,99981.78
2022-12-13T09:17:52.359Z,99997.41
2022-12-13T09:20:54.461Z,99998.25
2022-12-13T09:24:24.724Z,99983.69
2022-12-13T09:27:28.955Z,99992.34
2022-12-13T09:30:31.488Z,99994.03
2022-12-13T09:33:40.735Z,99999.06
2022-12-13T09:36:43.242Z,100001.84
2022-12-13T09:39:44.660Z,99997.53
2022-12-13T09:43:04.535Z,99998.31
2022-12-13T09:46:23.681Z,100000.97
2022-12-13T09:49:35.068Z,99999.22
2022-12-13T09:52:39.899Z,100000.19
2022-12-13T09:55:52.293Z,99992.41
2022-12-13T09:58:56.593Z,99981.19
2022-12-13T10:02:14.337Z,99985.63
2022-12-13T10:05:34.260Z,99993.50
2022-12-13T10:08:46.969Z,99984.88
2022-12-13T10:11:53.984Z,99989.16
2022-12-13T10:14:59.939Z,99990.09
2022-12-13T10:18:04.201Z,99974.66
2022-12-13T10:21:14.197Z,99969.59
2022-12-13T10:24:32.918Z,99967.78
2022-12-13T10:27:42.365Z,99968.50
2022-12-13T10:30:46.388Z,99955.63
2022-12-13T10:33:54.683Z,99953.81
2022-12-13T10:36:59.523Z,99951.22
2022-12-13T10:40:01.508Z,99953.84
2022-12-13T10:43:22.159Z,99958.31
2022-12-13T10:46:25.391Z,99948.84
2022-12-13T10:49:32.050Z,99940.25
2022-12-13T10:52:48.026Z,99940.34
2022-12-13T10:55:55.097Z,99938.59
2022-12-13T10:59:22.518Z,99929.13
2022-12-13T11:02:39.936Z,99928.34
2022-12-13T11:05:42.029Z,99922.28
2022-12-13T11:08:43.863Z,99916.28
2022-12-13T11:11:45.291Z,99908.47
2022-12-13T11:14:54.189Z,99907.66
2022-12-13T11:18:02.985Z,99902.47
2022-12-13T11:21:07.615Z,99905.03
2022-12-13T11:24:23.109Z,99895.53
2022-12-13T11:27:39.649Z,99902.44
2022-12-13T11:30:55.019Z,99904.09
2022-12-13T11:34:13.409Z,99892.09
2022-12-13T11:37:20.735Z,99902.50
2022-12-13T11:40:28.507Z,99898.19
2022-12-13T11:43:39.535Z,99902.50
2022-12-13T11:46:50.359Z,99897.34
2022-12-13T11:49:52.667Z,99891.28
2022-12-13T11:52:59.149Z,99889.53
2022-12-13T11:56:07.283Z,99890.41
2022-12-13T11:59:24.424Z,99882.63
2022-12-13T12:02:36.200Z,99883.47
2022-12-13T12:05:41.025Z,99873.13
2022-12-13T12:08:47.413Z,99884.38
2022-12-13T12:12:00.001Z,99877.47
2022-12-13T12:15:30.735Z,99886.13
2022-12-13T12:18:33.345Z,99876.63
2022-12-13T12:22:14.175Z,99859.38
2022-12-13T12:25:30.975Z,99868.84
2022-12-13T12:28:55.164Z,99883.56
2022-12-13T12:32:18.084Z,99877.53
2022-12-13T12:35:46.053Z,99868.03
2022-12-13T12:39:19.956Z,99869.78
2022-12-13T12:43:14.032Z,99868.03
2022-12-13T12:46:35.449Z,99871.47
2022-12-13T12:49:57.490Z,99857.66
2022-12-13T12:53:23.266Z,99840.41
2022-12-13T12:56:47.470Z,99835.19
2022-12-13T13:00:09.301Z,99832.63
2022-12-13T13:03:24.106Z,99843.81
2022-12-13T13:06:29.453Z,99842.09
2022-12-13T13:09:31.867Z,99837.81
2022-12-13T13:12:43.013Z,99843.88
2022-12-13T13:15:54.379Z,99838.69
2022-12-13T13:18:57.718Z,99840.41
2022-12-13T13:22:01.410Z,99834.34
2022-12-13T13:25:06.489Z,99823.13
2022-12-13T13:28:17.093Z,99836.09
2022-12-13T13:31:18.608Z,99829.19
2022-12-13T13:34:25.692Z,99843.00
2022-12-13T13:37:43.778Z,99847.31
2022-12-13T13:40:45.327Z,99843.84
2022-12-13T13:43:46.831Z,99840.41
2022-12-13T13:47:12.337Z,99835.22
2022-12-13T13:50:48.642Z,99830.06
2022-12-13T13:54:06.566Z,99841.28
2022-12-13T13:58:08.319Z,99839.53
2022-12-13T14:01:31.337Z,99832.63
2022-12-13T14:05:09.397Z,99838.69
2022-12-13T14:08:36.003Z,99838.66
2022-12-13T14:12:06.824Z,99840.41
2022-12-13T14:15:23.403Z,99827.47
2022-12-13T14:18:58.109Z,99829.19
2022-12-13T14:21:59.523Z,99835.22
2022-12-13T14:25:19.920Z,99835.22
2022-12-13T14:28:51.760Z,99827.47
2022-12-13T14:31:53.422Z,99824.00
2022-12-13T14:35:25.297Z,99823.13
2022-12-13T14:38:24.132Z,99829.09
2022-12-13T14:41:25.578Z,99832.53
2022-12-13T14:44:34.376Z,99826.56
2022-12-13T14:47:36.353Z,99836.06
2022-12-13T14:50:40.061Z,99823.09
2022-12-13T14:53:41.766Z,99821.34
2022-12-13T14:57:18.118Z,99825.63
2022-12-13T15:00:33.639Z,99826.53
2022-12-13T15:03:35.255Z,99823.94
2022-12-13T15:06:36.829Z,99814.41
2022-12-13T15:09:41.497Z,99807.47
2022-12-13T15:12:44.563Z,99798.00
2022-12-13T15:15:53.725Z,99781.59
2022-12-13T15:19:31.172Z,99779.00
2022-12-13T15:22:37.436Z,99772.97
2022-12-13T15:26:08.731Z,99766.91
2022-12-13T15:29:14.516Z,99774.69
2022-12-13T15:32:19.183Z,99772.91
2022-12-13T15:35:27.292Z,99764.28
2022-12-13T15:38:29.502Z,99764.28
2022-12-13T15:41:41.611Z,99759.13
2022-12-13T15:44:53.954Z,99747.09
2022-12-13T15:47:55.797Z,99742.81
2022-12-13T15:51:29.823Z,99736.75
2022-12-13T15:54:33.059Z,99742.81
2022-12-13T15:57:48.029Z,99731.56
2022-12-13T16:00:49.700Z,99739.34
2022-12-13T16:03:51.277Z,99738.47
2022-12-13T16:06:53.377Z,99750.56
2022-12-13T16:09:56.075Z,99737.63
2022-12-13T16:13:07.833Z,99717.78
2022-12-13T16:16:10.026Z,99706.53
2022-12-13T16:19:18.055Z,99710.78
2022-12-13T16:22:21.683Z,99717.69
2022-12-13T16:25:23.451Z,99724.66
2022-12-13T16:28:26.303Z,99728.09
2022-12-13T16:31:35.844Z,99731.50
2022-12-13T16:34:38.116Z,99719.44
2022-12-13T16:37:39.510Z,99721.16
2022-12-13T16:40:43.997Z,99714.25
2022-12-13T16:44:04.020Z,99727.16
2022-12-13T16:47:21.956Z,99735.78
2022-12-13T16:50:25.888Z,99735.84
2022-12-13T16:53:27.768Z,99730.66
2022-12-13T16:56:29.480Z,99736.69
2022-12-13T16:59:30.863Z,99743.56
2022-12-13T17:02:32.300Z,99741.84
2022-12-13T17:05:35.149Z,99737.53
2022-12-13T17:08:36.915Z,99734.06
2022-12-13T17:11:38.440Z,99734.91
2022-12-13T17:14:39.828Z,99711.63
2022-12-13T17:17:44.661Z,99718.56
2022-12-13T17:20:47.146Z,99714.22
2022-12-13T17:24:01.333Z,99708.16
2022-12-13T17:27:02.776Z,99701.22
2022-12-13T17:30:09.300Z,99688.38
2022-12-13T17:33:13.187Z,99686.66
2022-12-13T17:36:15.835Z,99679.75
2022-12-13T17:39:17.633Z,99679.75
2022-12-13T17:42:19.050Z,99690.13
2022-12-13T17:45:21.503Z,99690.13
2022-12-13T17:48:23.127Z,99686.63
2022-12-13T17:51:24.725Z,99693.56
2022-12-13T17:54:26.352Z,99688.41
2022-12-13T17:57:27.835Z,99686.66
2022-12-13T18:00:29.285Z,99690.06
2022-12-13T18:03:30.963Z,99684.06
2022-12-13T18:06:33.753Z,99695.28
2022-12-13T18:09:35.154Z,99683.25
2022-12-13T18:12:36.577Z,99685.84
2022-12-13T18:15:38.017Z,99672.91
2022-12-13T18:18:41.593Z,99665.13
2022-12-13T18:21:46.149Z,99651.38
2022-12-13T18:24:47.572Z,99673.75
2022-12-13T18:27:49.004Z,99684.94
2022-12-13T18:30:50.454Z,99675.44
2022-12-13T18:33:55.672Z,99671.13
2022-12-13T18:36:57.068Z,99653.06
2022-12-13T18:39:58.595Z,99634.97
2022-12-13T18:43:00.032Z,99631.53
2022-12-13T18:46:04.053Z,99625.50
2022-12-13T18:49:06.393Z,99636.69
2022-12-13T18:52:08.155Z,99618.59
2022-12-13T18:55:09.821Z,99610.84
2022-12-13T18:58:11.239Z,99607.41
2022-12-13T19:01:13.435Z,99615.16
2022-12-13T19:04:14.989Z,99618.59
2022-12-13T19:07:16.963Z,99621.22
2022-12-13T19:10:18.593Z,99624.66
2022-12-13T19:13:20.500Z,99622.91
2022-12-13T19:16:23.327Z,99625.50
2022-12-13T19:19:24.771Z,99616.00
2022-12-13T19:22:26.215Z,99610.84
2022-12-13T19:25:27.618Z,99608.28
2022-12-13T19:28:29.020Z,99627.25
2022-12-13T19:31:32.468Z,99607.44
2022-12-13T19:34:34.184Z,99606.56
2022-12-13T19:37:38.999Z,99613.47
2022-12-13T19:40:42.509Z,99619.50
2022-12-13T19:43:49.125Z,99616.91
2022-12-13T19:46:53.881Z,99603.13
2022-12-13T19:49:55.481Z,99588.44
2022-12-13T19:52:56.875Z,99588.44
2022-12-13T19:55:58.745Z,99574.66
2022-12-13T19:59:00.116Z,99575.53
2022-12-13T20:02:01.922Z,99575.53
2022-12-13T20:05:03.640Z,99572.09
2022-12-13T20:08:05.686Z,99565.19
2022-12-13T20:11:16.979Z,99566.06
2022-12-13T20:14:18.465Z,99565.19
2022-12-13T20:17:19.963Z,99554.84
2022-12-13T20:20:21.506Z,99556.56
2022-12-13T20:23:22.949Z,99552.28
2022-12-13T20:26:27.428Z,99552.25
2022-12-13T20:29:28.883Z,99541.94
2022-12-13T20:32:30.578Z,99553.13
2022-12-13T20:35:31.995Z,99552.25
2022-12-13T20:38:34.172Z,99543.63
2022-12-13T20:41:36.804Z,99542.78
2022-12-13T20:44:38.200Z,99530.72
2022-12-13T20:47:39.818Z,99535.03
2022-12-13T20:50:41.296Z,99528.13
2022-12-13T20:53:49.620Z,99525.53
2022-12-13T20:56:51.127Z,99527.25
2022-12-13T20:59:52.516Z,99524.69
2022-12-13T21:02:53.930Z,99524.69
2022-12-13T21:05:56.135Z,99516.06
2022-12-13T21:09:02.978Z,99510.00
2022-12-13T21:12:04.646Z,99506.59
2022-12-13T21:15:07.305Z,99497.97
2022-12-13T21:18:08.803Z,99496.22
2022-12-13T21:21:11.252Z,99499.69
2022-12-13T21:24:14.768Z,99502.25
2022-12-13T21:27:16.143Z,99495.34
2022-12-13T21:30:17.601Z,99493.63
2022-12-13T21:33:18.997Z,99488.47
2022-12-13T21:36:23.701Z,99472.94
2022-12-13T21:39:29.203Z,99481.56
2022-12-13T21:42:30.670Z,99471.25
2022-12-13T21:45:33.055Z,99462.59
2022-12-13T21:48:34.988Z,99456.56
2022-12-13T21:51:36.381Z,99460.00
2022-12-13T21:54:37.772Z,99441.06
2022-12-13T21:57:59.841Z,99450.53
2022-12-13T22:01:04.529Z,99439.34
2022-12-13T22:04:07.243Z,99434.16
2022-12-13T22:07:09.880Z,99427.25
2022-12-13T22:10:11.288Z,99417.78
2022-12-13T22:13:12.765Z,99412.59
2022-12-13T22:16:14.179Z,99414.31
2022-12-13T22:19:15.939Z,99404.84
2022-12-13T22:22:18.593Z,99389.31
2022-12-13T22:25:19.982Z,99391.09
2022-12-13T22:28:21.395Z,99373.81
2022-12-13T22:31:26.650Z,99374.63
2022-12-13T22:34:31.509Z,99374.66
2022-12-13T22:37:33.234Z,99367.75
2022-12-13T22:40:37.317Z,99374.66
2022-12-13T22:43:38.794Z,99381.56
2022-12-13T22:46:40.880Z,99375.50
2022-12-13T22:49:42.347Z,99382.44
2022-12-13T22:52:43.807Z,99383.28
2022-12-13T22:55:45.282Z,99368.63
2022-12-13T22:58:52.103Z,99370.34
2022-12-13T23:02:02.151Z,99364.31
2022-12-13T23:05:04.933Z,99370.34
2022-12-13T23:08:06.325Z,99363.44
2022-12-13T23:11:26.877Z,99371.22
2022-12-13T23:14:31.316Z,99372.09
2022-12-13T23:17:33.729Z,99365.16
2022-12-13T23:20:35.908Z,99350.50
2022-12-13T23:23:37.397Z,99347.06
2022-12-13T23:26:38.888Z,99344.47
2022-12-13T23:29:40.391Z,99331.47
2022-12-13T23:32:41.789Z,99326.38
2022-12-13T23:35:43.313Z,99326.38
2022-12-13T23:38:45.366Z,99322.03
2022-12-13T23:41:46.856Z,99322.91
2022-12-13T23:44:49.063Z,99324.59
2022-12-13T23:47:51.056Z,99322.91
2022-12-13T23:50:53.553Z,99324.63
2022-12-13T23:53:55.237Z,99328.97
2022-12-13T23:56:56.689Z,99334.94
2022-12-13T23:59:58.096Z,99328.88
